createdAt,value
2022-10-24T00:01:47.067Z,20.80
2022-10-24T00:04:16.589Z,20.80
2022-10-24T00:06:44.748Z,20.70
2022-10-24T00:09:12.992Z,20.70
2022-10-24T00:11:44.576Z,20.70
2022-10-24T00:14:13.073Z,20.70
2022-10-24T00:16:41.232Z,20.70
2022-10-24T00:19:09.458Z,20.70
2022-10-24T00:21:39.470Z,20.70
2022-10-24T00:24:08.799Z,20.70
2022-10-24T00:26:37.522Z,20.60
2022-10-24T00:29:06.145Z,20.50
2022-10-24T00:31:34.707Z,20.50
2022-10-24T00:34:03.023Z,20.50
2022-10-24T00:36:31.218Z,20.10
2022-10-24T00:39:01.348Z,19.90
2022-10-24T00:41:34.792Z,19.10
2022-10-24T00:44:18.363Z,18.60
2022-10-24T00:46:51.414Z,18.40
2022-10-24T00:49:22.726Z,18.80
2022-10-24T00:51:55.112Z,19.10
2022-10-24T00:54:25.050Z,19.30
2022-10-24T00:57:01.253Z,19.30
2022-10-24T00:59:29.864Z,19.50
2022-10-24T01:01:58.300Z,19.60
2022-10-24T01:04:26.391Z,19.60
2022-10-24T01:07:08.499Z,19.60
2022-10-24T01:09:55.597Z,19.60
2022-10-24T01:12:32.963Z,19.60
2022-10-24T01:15:08.476Z,19.60
2022-10-24T01:17:44.143Z,19.50
2022-10-24T01:20:40.854Z,19.40
2022-10-24T01:23:24.802Z,19.30
2022-10-24T01:26:10.535Z,19.30
2022-10-24T01:28:48.430Z,19.20
2022-10-24T01:31:26.583Z,19.00
2022-10-24T01:34:00.038Z,19.00
2022-10-24T01:36:36.531Z,19.00
2022-10-24T01:39:10.492Z,18.90
2022-10-24T01:41:41.410Z,18.90
2022-10-24T01:44:16.503Z,18.80
2022-10-24T01:46:51.810Z,18.90
2022-10-24T01:49:23.368Z,18.90
2022-10-24T01:51:57.366Z,19.00
2022-10-24T01:54:25.725Z,19.10
2022-10-24T01:56:53.839Z,19.20
2022-10-24T01:59:42.422Z,19.30
2022-10-24T02:02:15.547Z,19.40
2022-10-24T02:04:53.893Z,19.50
2022-10-24T02:07:23.741Z,19.50
2022-10-24T02:09:57.506Z,19.70
2022-10-24T02:12:28.152Z,19.70
2022-10-24T02:15:03.703Z,19.60
2022-10-24T02:17:33.410Z,19.60
2022-10-24T02:20:02.394Z,19.70
2022-10-24T02:22:34.739Z,19.70
2022-10-24T02:25:05.709Z,19.70
2022-10-24T02:27:38.760Z,19.70
2022-10-24T02:30:10.662Z,19.70
2022-10-24T02:32:43.092Z,19.60
2022-10-24T02:35:13.360Z,19.60
2022-10-24T02:37:44.899Z,19.70
2022-10-24T02:40:15.180Z,19.80
2022-10-24T02:42:45.359Z,19.70
2022-10-24T02:45:16.724Z,19.70
2022-10-24T02:47:47.258Z,19.80
2022-10-24T02:50:15.683Z,19.80
2022-10-24T02:52:45.511Z,19.70
2022-10-24T02:55:13.960Z,19.70
2022-10-24T02:57:42.093Z,19.70
2022-10-24T03:00:11.756Z,19.80
2022-10-24T03:02:40.108Z,19.70
2022-10-24T03:05:10.588Z,19.70
2022-10-24T03:07:38.916Z,19.70
2022-10-24T03:10:07.778Z,19.60
2022-10-24T03:12:35.915Z,19.70
2022-10-24T03:15:04.142Z,19.70
2022-10-24T03:17:32.262Z,19.60
2022-10-24T03:20:00.679Z,19.50
2022-10-24T03:22:30.663Z,19.40
2022-10-24T03:25:02.134Z,19.30
2022-10-24T03:27:31.200Z,19.40
2022-10-24T03:29:59.295Z,19.50
2022-10-24T03:32:27.843Z,19.50
2022-10-24T03:34:56.101Z,19.50
2022-10-24T03:37:24.295Z,19.50
2022-10-24T03:39:53.911Z,19.50
2022-10-24T03:42:22.149Z,19.50
2022-10-24T03:44:50.359Z,19.50
2022-10-24T03:47:19.653Z,19.60
2022-10-24T03:49:47.784Z,19.60
2022-10-24T03:52:16.233Z,19.60
2022-10-24T03:54:44.644Z,19.70
2022-10-24T03:57:14.358Z,19.70
2022-10-24T03:59:42.569Z,19.80
2022-10-24T04:02:10.687Z,19.80
2022-10-24T04:04:38.783Z,19.80
2022-10-24T04:07:07.089Z,19.80
2022-10-24T04:09:35.365Z,19.90
2022-10-24T04:12:03.555Z,19.90
2022-10-24T04:14:33.258Z,19.70
2022-10-24T04:17:01.628Z,19.60
2022-10-24T04:19:29.915Z,19.50
2022-10-24T04:21:58.102Z,19.50
2022-10-24T04:24:26.729Z,19.50
2022-10-24T04:26:54.884Z,19.40
2022-10-24T04:29:23.250Z,19.30
2022-10-24T04:31:52.712Z,19.00
2022-10-24T04:34:20.987Z,18.90
2022-10-24T04:36:49.160Z,18.80
2022-10-24T04:39:17.490Z,18.60
2022-10-24T04:41:50.552Z,18.40
2022-10-24T04:44:21.738Z,18.40
2022-10-24T04:46:51.530Z,18.20
2022-10-24T04:49:21.734Z,18.20
2022-10-24T04:51:49.875Z,18.00
2022-10-24T04:54:18.209Z,18.00
2022-10-24T04:56:46.500Z,17.80
2022-10-24T04:59:14.828Z,17.60
2022-10-24T05:01:43.229Z,17.50
2022-10-24T05:04:12.623Z,17.60
2022-10-24T05:06:44.235Z,17.50
2022-10-24T05:09:13.426Z,17.50
2022-10-24T05:11:42.008Z,17.60
2022-10-24T05:14:10.315Z,17.60
2022-10-24T05:16:39.818Z,17.70
2022-10-24T05:19:07.976Z,17.70
2022-10-24T05:21:36.160Z,17.80
2022-10-24T05:24:05.944Z,18.00
2022-10-24T05:26:34.296Z,17.90
2022-10-24T05:29:02.783Z,17.90
2022-10-24T05:34:00.232Z,17.70
2022-10-24T05:36:28.507Z,17.60
2022-10-24T05:38:57.488Z,17.60
2022-10-24T05:41:27.260Z,17.60
2022-10-24T05:43:55.488Z,16.90
2022-10-24T05:46:23.876Z,16.70
2022-10-24T05:48:51.991Z,16.20
2022-10-24T05:51:20.166Z,16.20
2022-10-24T05:53:48.311Z,16.30
2022-10-24T05:56:16.455Z,16.70
2022-10-24T05:58:45.986Z,17.00
2022-10-24T06:01:14.595Z,16.50
2022-10-24T06:03:42.843Z,16.90
2022-10-24T06:06:11.907Z,17.10
2022-10-24T06:08:40.241Z,17.30
2022-10-24T06:11:10.885Z,17.40
2022-10-24T06:13:39.383Z,17.50
2022-10-24T06:16:10.848Z,17.60
2022-10-24T06:18:40.423Z,17.50
2022-10-24T06:21:09.955Z,17.50
2022-10-24T06:23:38.204Z,17.50
2022-10-24T06:26:10.075Z,17.50
2022-10-24T06:28:39.033Z,17.60
2022-10-24T06:31:09.359Z,17.50
2022-10-24T06:33:37.490Z,16.40
2022-10-24T06:36:09.382Z,16.20
2022-10-24T06:38:38.402Z,16.40
2022-10-24T06:41:07.567Z,16.40
2022-10-24T06:43:35.680Z,16.80
2022-10-24T06:46:08.533Z,17.10
2022-10-24T06:48:37.202Z,17.20
2022-10-24T06:51:06.066Z,17.30
2022-10-24T06:53:34.778Z,17.40
2022-10-24T06:56:03.249Z,17.30
2022-10-24T06:58:33.626Z,17.30
2022-10-24T07:01:01.990Z,17.30
2022-10-24T07:03:32.525Z,17.30
2022-10-24T07:06:00.662Z,17.30
2022-10-24T07:08:28.742Z,17.30
2022-10-24T07:10:56.786Z,17.30
2022-10-24T07:13:24.939Z,17.30
2022-10-24T07:15:55.211Z,17.30
2022-10-24T07:18:23.671Z,17.30
2022-10-24T07:20:53.173Z,17.30
2022-10-24T07:23:21.423Z,17.20
2022-10-24T07:25:49.555Z,17.30
2022-10-24T07:28:17.725Z,17.30
2022-10-24T07:30:46.443Z,17.20
2022-10-24T07:33:16.581Z,17.30
2022-10-24T07:35:44.859Z,17.20
2022-10-24T07:38:16.480Z,17.10
2022-10-24T07:40:46.780Z,17.10
2022-10-24T07:43:15.632Z,17.10
2022-10-24T07:45:47.763Z,17.10
2022-10-24T07:48:20.275Z,17.20
2022-10-24T07:50:49.220Z,17.20
2022-10-24T07:53:18.821Z,17.20
2022-10-24T07:55:47.075Z,17.20
2022-10-24T07:58:15.463Z,17.20
2022-10-24T08:00:45.375Z,17.30
2022-10-24T08:03:14.511Z,17.30
2022-10-24T08:05:43.324Z,17.30
2022-10-24T08:08:30.834Z,17.30
2022-10-24T08:11:02.551Z,17.30
2022-10-24T08:13:30.807Z,17.30
2022-10-24T08:15:59.280Z,17.40
2022-10-24T08:18:30.171Z,17.40
2022-10-24T08:21:00.781Z,17.40
2022-10-24T08:23:29.293Z,17.50
2022-10-24T08:25:57.447Z,17.50
2022-10-24T08:28:27.008Z,17.50
2022-10-24T08:30:59.839Z,17.50
2022-10-24T08:33:28.311Z,17.50
2022-10-24T08:35:59.941Z,17.50
2022-10-24T08:38:28.512Z,17.50
2022-10-24T08:40:57.170Z,17.50
2022-10-24T08:43:27.986Z,17.50
2022-10-24T08:46:07.818Z,17.50
2022-10-24T08:48:44.887Z,17.50
2022-10-24T08:51:30.820Z,17.50
2022-10-24T08:54:01.896Z,17.50
2022-10-24T08:56:33.976Z,17.50
2022-10-24T08:59:06.107Z,17.50
2022-10-24T09:01:39.781Z,17.60
2022-10-24T09:04:11.175Z,17.60
2022-10-24T09:06:39.448Z,17.60
2022-10-24T09:09:17.573Z,17.60
2022-10-24T09:11:51.031Z,17.70
2022-10-24T09:14:21.833Z,17.70
2022-10-24T09:16:54.465Z,17.70
2022-10-24T09:19:25.666Z,17.70
2022-10-24T09:21:55.321Z,17.80
2022-10-24T09:24:40.462Z,17.80
2022-10-24T09:27:15.817Z,17.90
2022-10-24T09:29:46.012Z,17.90
2022-10-24T09:32:19.942Z,17.90
2022-10-24T09:34:49.155Z,17.90
2022-10-24T09:37:42.879Z,17.90
2022-10-24T09:40:21.237Z,18.00
2022-10-24T09:42:56.780Z,17.90
2022-10-24T09:48:39.884Z,17.80
2022-10-24T09:51:09.336Z,17.70
2022-10-24T09:53:40.943Z,17.70
2022-10-24T09:56:11.840Z,17.60
2022-10-24T09:58:40.791Z,17.60
2022-10-24T10:01:21.283Z,17.70
2022-10-24T10:04:06.210Z,17.70
2022-10-24T10:06:36.143Z,17.70
2022-10-24T10:09:14.074Z,17.70
2022-10-24T10:11:49.375Z,17.70
2022-10-24T10:14:24.995Z,17.70
2022-10-24T10:17:00.904Z,17.70
2022-10-24T10:19:33.889Z,17.70
2022-10-24T10:22:03.372Z,17.70
2022-10-24T10:24:39.498Z,17.80
2022-10-24T10:27:32.614Z,17.80
2022-10-24T10:30:20.292Z,17.80
2022-10-24T10:33:10.269Z,17.90
2022-10-24T10:35:46.208Z,17.90
2022-10-24T10:38:31.247Z,17.90
2022-10-24T10:41:04.600Z,18.00
2022-10-24T10:43:41.359Z,18.00
2022-10-24T10:46:20.529Z,18.00
2022-10-24T10:48:59.680Z,18.10
2022-10-24T10:51:38.558Z,18.10
2022-10-24T10:54:19.128Z,18.20
2022-10-24T10:56:51.284Z,18.20
2022-10-24T10:59:35.751Z,18.20
2022-10-24T11:02:25.595Z,18.20
2022-10-24T11:04:59.896Z,18.20
2022-10-24T11:07:36.704Z,18.30
2022-10-24T11:10:08.682Z,18.30
2022-10-24T11:12:39.987Z,18.30
2022-10-24T11:17:51.318Z,18.30
2022-10-24T11:20:23.538Z,18.30
2022-10-24T11:22:56.523Z,18.30
2022-10-24T11:25:29.151Z,18.30
2022-10-24T11:28:07.296Z,18.30
2022-10-24T11:30:51.561Z,18.30
2022-10-24T11:33:23.202Z,18.40
2022-10-24T11:36:08.021Z,18.30
2022-10-24T11:38:44.311Z,18.30
2022-10-24T11:41:29.071Z,18.30
2022-10-24T11:44:00.424Z,18.30
2022-10-24T11:46:37.556Z,18.40
2022-10-24T11:49:17.012Z,18.40
2022-10-24T11:51:50.868Z,18.40
2022-10-24T11:54:26.575Z,18.40
2022-10-24T11:56:59.051Z,18.50
2022-10-24T11:59:27.150Z,18.50
2022-10-24T12:02:23.730Z,18.50
2022-10-24T12:05:23.619Z,18.50
2022-10-24T12:08:13.505Z,18.60
2022-10-24T12:11:02.391Z,18.70
2022-10-24T12:13:48.584Z,18.70
2022-10-24T12:16:26.972Z,18.80
2022-10-24T12:19:00.684Z,18.90
2022-10-24T12:21:35.076Z,18.90
2022-10-24T12:24:03.534Z,18.80
2022-10-24T12:26:34.617Z,18.80
2022-10-24T12:29:05.052Z,18.80
2022-10-24T12:31:34.514Z,18.90
2022-10-24T12:34:48.866Z,18.90
2022-10-24T12:37:35.982Z,19.00
2022-10-24T12:40:37.251Z,19.00
2022-10-24T12:43:29.278Z,19.10
2022-10-24T12:46:00.185Z,19.10
2022-10-24T12:48:37.076Z,19.10
2022-10-24T12:51:30.445Z,19.20
2022-10-24T12:54:16.044Z,19.30
2022-10-24T12:57:22.701Z,19.30
2022-10-24T12:59:54.700Z,19.30
2022-10-24T13:02:49.306Z,19.30
2022-10-24T13:05:40.003Z,19.30
2022-10-24T13:08:19.777Z,19.30
2022-10-24T13:11:03.430Z,19.40
2022-10-24T13:13:57.540Z,19.40
2022-10-24T13:16:37.178Z,19.40
2022-10-24T13:19:13.449Z,19.40
2022-10-24T13:21:49.988Z,19.40
2022-10-24T13:24:40.714Z,19.50
2022-10-24T13:27:30.108Z,19.40
2022-10-24T13:30:21.743Z,19.40
2022-10-24T13:32:51.598Z,19.30
2022-10-24T13:35:28.570Z,19.20
2022-10-24T13:38:00.506Z,19.30
2022-10-24T13:40:37.712Z,19.30
2022-10-24T13:43:14.628Z,19.40
2022-10-24T13:45:55.046Z,19.40
2022-10-24T13:48:28.459Z,19.40
2022-10-24T13:51:06.618Z,19.50
2022-10-24T13:53:46.337Z,19.50
2022-10-24T13:56:15.204Z,19.40
2022-10-24T13:58:45.274Z,19.40
2022-10-24T14:01:20.107Z,19.40
2022-10-24T14:03:51.456Z,19.50
2022-10-24T14:06:25.880Z,19.40
2022-10-24T14:09:05.566Z,19.50
2022-10-24T14:11:40.718Z,19.50
2022-10-24T14:14:21.380Z,19.50
2022-10-24T14:16:49.748Z,19.50
2022-10-24T14:19:29.635Z,19.50
2022-10-24T14:22:00.231Z,19.60
2022-10-24T14:24:28.479Z,19.60
2022-10-24T14:26:59.165Z,19.70
2022-10-24T14:29:31.296Z,19.80
2022-10-24T14:32:01.860Z,19.90
2022-10-24T14:34:36.158Z,20.00
2022-10-24T14:37:07.293Z,20.10
2022-10-24T14:39:35.988Z,20.10
2022-10-24T14:42:04.598Z,20.10
2022-10-24T14:44:37.338Z,20.20
2022-10-24T14:47:19.736Z,20.20
2022-10-24T14:49:49.336Z,20.20
2022-10-24T14:52:24.414Z,20.10
2022-10-24T14:54:58.792Z,20.10
2022-10-24T14:57:28.112Z,20.00
2022-10-24T14:59:58.340Z,20.00
2022-10-24T15:02:29.984Z,19.90
2022-10-24T15:05:34.400Z,19.80
2022-10-24T15:08:22.952Z,19.70
2022-10-24T15:11:03.467Z,19.70
2022-10-24T15:13:33.706Z,19.70
2022-10-24T15:16:02.684Z,19.70
2022-10-24T15:18:33.640Z,19.70
2022-10-24T15:21:07.107Z,19.70
2022-10-24T15:23:37.084Z,19.70
2022-10-24T15:26:11.052Z,19.70
2022-10-24T15:28:46.558Z,19.80
2022-10-24T15:31:16.324Z,19.80
2022-10-24T15:33:45.121Z,19.70
2022-10-24T15:36:23.688Z,19.60
2022-10-24T15:38:56.211Z,19.40
2022-10-24T15:41:24.668Z,19.40
2022-10-24T15:43:52.860Z,19.50
2022-10-24T15:46:22.042Z,19.50
2022-10-24T15:48:50.792Z,19.60
2022-10-24T15:51:22.780Z,19.60
2022-10-24T15:53:51.420Z,19.60
2022-10-24T15:56:19.725Z,19.60
2022-10-24T16:01:23.681Z,19.70
2022-10-24T16:03:52.099Z,19.70
2022-10-24T16:06:22.004Z,19.70
2022-10-24T16:08:50.412Z,19.70
2022-10-24T16:11:18.918Z,19.60
2022-10-24T16:13:47.384Z,19.50
2022-10-24T16:16:15.591Z,19.60
2022-10-24T16:18:44.106Z,19.50
2022-10-24T16:21:17.386Z,19.60
2022-10-24T16:23:47.581Z,19.60
2022-10-24T16:26:16.531Z,19.60
2022-10-24T16:28:44.781Z,19.60
2022-10-24T16:31:19.339Z,19.50
2022-10-24T16:33:48.059Z,19.50
2022-10-24T16:36:19.519Z,19.40
2022-10-24T16:38:52.058Z,19.30
2022-10-24T16:41:22.562Z,19.30
2022-10-24T16:43:51.532Z,19.30
2022-10-24T16:46:21.939Z,19.20
2022-10-24T16:48:50.962Z,19.20
2022-10-24T16:51:21.316Z,19.20
2022-10-24T16:53:49.475Z,19.00
2022-10-24T16:56:19.399Z,18.80
2022-10-24T16:58:47.715Z,18.70
2022-10-24T17:01:17.187Z,18.70
2022-10-24T17:03:46.011Z,18.70
2022-10-24T17:06:14.770Z,18.70
2022-10-24T17:08:42.910Z,18.50
2022-10-24T17:11:39.441Z,18.20
2022-10-24T17:14:01.142Z,17.90
2022-10-24T17:16:29.447Z,17.40
2022-10-24T17:19:12.167Z,17.20
2022-10-24T17:21:43.885Z,17.10
2022-10-24T17:24:13.144Z,17.30
2022-10-24T17:26:41.478Z,17.50
2022-10-24T17:29:14.527Z,17.60
2022-10-24T17:31:42.860Z,17.40
2022-10-24T17:34:11.751Z,17.30
2022-10-24T17:36:42.944Z,17.20
2022-10-24T17:39:15.533Z,17.00
2022-10-24T17:41:45.432Z,17.00
2022-10-24T17:44:18.898Z,16.90
2022-10-24T17:46:47.343Z,17.10
2022-10-24T17:49:20.828Z,17.30
2022-10-24T17:51:50.417Z,17.30
2022-10-24T17:54:18.754Z,17.30
2022-10-24T17:56:46.985Z,17.20
2022-10-24T17:59:16.772Z,16.90
2022-10-24T18:01:45.148Z,16.80
2022-10-24T18:04:13.329Z,15.90
2022-10-24T18:06:43.438Z,15.90
2022-10-24T18:09:12.041Z,16.10
2022-10-24T18:11:40.351Z,16.30
2022-10-24T18:14:08.859Z,16.20
2022-10-24T18:16:39.453Z,15.80
2022-10-24T18:19:08.183Z,15.70
2022-10-24T18:21:37.093Z,15.90
2022-10-24T18:24:07.968Z,16.30
2022-10-24T18:26:36.310Z,16.60
2022-10-24T18:29:04.938Z,16.80
2022-10-24T18:31:34.143Z,16.90
2022-10-24T18:34:07.567Z,16.80
2022-10-24T18:36:36.962Z,16.80
2022-10-24T18:39:05.662Z,16.70
2022-10-24T18:41:39.079Z,16.60
2022-10-24T18:44:26.907Z,16.60
2022-10-24T18:46:57.383Z,16.60
2022-10-24T18:49:27.393Z,16.50
2022-10-24T18:52:14.719Z,16.50
2022-10-24T18:54:52.304Z,16.50
2022-10-24T18:57:24.265Z,16.40
2022-10-24T18:59:52.759Z,16.30
2022-10-24T19:02:32.868Z,15.90
2022-10-24T19:05:20.277Z,15.30
2022-10-24T19:07:49.314Z,15.00
2022-10-24T19:10:20.983Z,15.20
2022-10-24T19:12:49.617Z,15.20
2022-10-24T19:15:18.487Z,15.20
2022-10-24T19:17:48.275Z,15.30
2022-10-24T19:20:20.882Z,15.40
2022-10-24T19:22:49.221Z,15.30
2022-10-24T19:25:18.492Z,15.50
2022-10-24T19:27:46.861Z,15.60
2022-10-24T19:30:15.200Z,15.60
2022-10-24T19:32:43.570Z,15.50
2022-10-24T19:35:11.856Z,15.40
2022-10-24T19:37:41.908Z,15.30
2022-10-24T19:40:11.360Z,15.20
2022-10-24T19:42:39.584Z,15.10
2022-10-24T19:45:08.841Z,15.10
2022-10-24T19:47:37.175Z,15.10
2022-10-24T19:50:05.890Z,15.10
2022-10-24T19:52:34.043Z,15.00
2022-10-24T19:55:03.588Z,15.00
2022-10-24T19:57:31.748Z,15.00
2022-10-24T19:59:59.899Z,14.90
2022-10-24T20:02:28.372Z,14.90
2022-10-24T20:04:56.716Z,14.80
2022-10-24T20:07:24.806Z,14.80
2022-10-24T20:09:52.981Z,14.80
2022-10-24T20:12:23.680Z,14.80
2022-10-24T20:14:51.943Z,14.80
2022-10-24T20:17:20.164Z,14.80
2022-10-24T20:19:48.218Z,14.80
2022-10-24T20:22:16.523Z,14.80
2022-10-24T20:24:44.728Z,14.80
2022-10-24T20:27:13.457Z,14.70
2022-10-24T20:29:43.080Z,14.60
2022-10-24T20:32:11.648Z,14.60
2022-10-24T20:34:39.742Z,14.60
2022-10-24T20:37:09.072Z,14.60
2022-10-24T20:39:37.790Z,14.70
2022-10-24T20:42:06.294Z,14.70
2022-10-24T20:44:34.394Z,14.60
2022-10-24T20:47:03.906Z,14.60
2022-10-24T20:49:32.241Z,14.70
2022-10-24T20:52:00.390Z,14.70
2022-10-24T20:54:28.892Z,14.70
2022-10-24T20:56:57.026Z,14.80
2022-10-24T20:59:25.176Z,14.70
2022-10-24T21:01:53.360Z,14.80
2022-10-24T21:04:22.940Z,14.80
2022-10-24T21:06:51.163Z,14.80
2022-10-24T21:09:19.263Z,14.80
2022-10-24T21:11:47.506Z,14.80
2022-10-24T21:14:17.997Z,14.80
2022-10-24T21:16:46.257Z,14.80
2022-10-24T21:19:14.466Z,14.80
2022-10-24T21:21:44.123Z,14.80
2022-10-24T21:24:16.603Z,14.80
2022-10-24T21:26:45.196Z,14.80
2022-10-24T21:29:33.400Z,14.80
2022-10-24T21:32:01.619Z,14.90
2022-10-24T21:34:33.180Z,14.80
2022-10-24T21:37:04.787Z,14.80
2022-10-24T21:39:33.222Z,14.80
2022-10-24T21:42:01.400Z,14.80
2022-10-24T21:44:29.834Z,14.90
2022-10-24T21:46:58.092Z,14.80
2022-10-24T21:49:26.457Z,14.90
2022-10-24T21:51:54.946Z,14.90
2022-10-24T21:54:25.902Z,14.90
2022-10-24T21:56:54.394Z,15.00
2022-10-24T21:59:22.735Z,15.00
2022-10-24T22:01:52.420Z,14.90
2022-10-24T22:04:20.802Z,14.90
2022-10-24T22:06:49.434Z,14.90
2022-10-24T22:09:19.749Z,14.90
2022-10-24T22:11:49.405Z,14.90
2022-10-24T22:14:18.294Z,14.80
2022-10-24T22:16:46.833Z,14.90
2022-10-24T22:19:15.385Z,14.80
2022-10-24T22:21:45.009Z,14.80
2022-10-24T22:24:15.594Z,14.80
2022-10-24T22:26:43.704Z,14.80
2022-10-24T22:29:15.616Z,14.70
2022-10-24T22:31:44.781Z,14.80
2022-10-24T22:34:17.331Z,14.80
2022-10-24T22:37:01.156Z,14.80
2022-10-24T22:39:30.009Z,14.70
2022-10-24T22:41:58.641Z,14.70
2022-10-24T22:44:28.715Z,14.80
2022-10-24T22:47:29.273Z,14.80
2022-10-24T22:50:06.085Z,14.80
2022-10-24T22:52:34.803Z,14.70
2022-10-24T22:55:04.050Z,14.80
2022-10-24T23:00:03.326Z,14.80
2022-10-24T23:02:36.529Z,14.70
2022-10-24T23:05:07.555Z,14.70
2022-10-24T23:07:45.947Z,14.70
2022-10-24T23:10:19.636Z,14.70
2022-10-24T23:12:48.333Z,14.70
2022-10-24T23:15:20.663Z,14.60
2022-10-24T23:17:50.244Z,14.60
2022-10-24T23:20:28.230Z,14.70
2022-10-24T23:23:09.203Z,14.60
2022-10-24T23:25:50.585Z,14.60
2022-10-24T23:28:24.378Z,14.70
2022-10-24T23:30:54.566Z,14.60
2022-10-24T23:33:27.518Z,14.60
2022-10-24T23:35:59.262Z,14.60
2022-10-24T23:38:28.471Z,14.50
2022-10-24T23:40:57.571Z,14.50
2022-10-24T23:43:26.542Z,14.50
2022-10-24T23:46:00.253Z,14.50
2022-10-24T23:48:44.091Z,14.50
2022-10-24T23:51:18.617Z,14.50
2022-10-24T23:53:50.459Z,14.50
2022-10-24T23:56:21.019Z,14.50
2022-10-24T23:58:49.191Z,14.40
